Terminal Aerodrome Forecast
Issued by NWS Boston, MA

Home | Current Version | Previous Version | Text Only | Print | Product List | Glossary On
Versions: 1 2 3 4 5 6 7 8 9 10 11 12 13 14 15 16 17 18 19 20 21 22 23 24 25 26 27 28 29 30 31 32 33
000
FTUS41 KBOX 040542
TAFORH
TAF
KORH 040542Z 0406/0506 22017G24KT 5SM -RA BR OVC008 WS020/22045KT
     FM040800 23010KT 6SM BR OVC008 WS020/24040KT
     FM041100 24010KT P6SM OVC008
     FM041200 25009KT P6SM OVC015
     FM041500 25008KT P6SM OVC050
     FM050300 27006KT 3SM BR OVC250=

USA.gov is the U.S. government's official web portal to all federal, state and local government web resources and services.